createdAt,value
2023-02-22T00:06:17.341Z,66.5
2023-02-22T00:16:23.920Z,67
2023-02-22T00:26:30.505Z,74
2023-02-22T00:36:37.114Z,70.5
2023-02-22T00:46:43.681Z,69.5
2023-02-22T00:56:50.284Z,70.5
2023-02-22T01:06:56.876Z,67.5
2023-02-22T01:17:03.436Z,66.5
2023-02-22T01:27:10.014Z,68
2023-02-22T01:37:15.889Z,68
2023-02-22T01:47:22.453Z,66
2023-02-22T01:57:29.053Z,67
2023-02-22T02:07:35.612Z,69.5
2023-02-22T02:17:42.204Z,68.5
2023-02-22T02:27:48.788Z,67
2023-02-22T02:37:54.717Z,67
2023-02-22T02:48:00.583Z,68
2023-02-22T02:58:07.134Z,66.5
2023-02-22T03:08:13.003Z,66.5
2023-02-22T03:18:18.851Z,66.5
2023-02-22T03:28:25.448Z,66
2023-02-22T03:38:32.037Z,67
2023-02-22T03:48:38.608Z,68.5
2023-02-22T03:58:45.228Z,68
2023-02-22T04:08:51.831Z,67.5
2023-02-22T04:18:58.448Z,67.5
2023-02-22T04:29:05.015Z,67
2023-02-22T04:39:11.864Z,67.5
2023-02-22T04:49:18.334Z,68.5
2023-02-22T04:59:24.929Z,68
2023-02-22T05:09:31.679Z,69
2023-02-22T05:19:38.264Z,70
2023-02-22T05:29:44.844Z,69.5
2023-02-22T05:39:51.646Z,71
2023-02-22T05:49:57.548Z,71
2023-02-22T06:00:04.077Z,72.5
2023-02-22T06:10:10.657Z,76.5
2023-02-22T06:20:17.222Z,85.5
2023-02-22T06:30:23.807Z,87.5
2023-02-22T06:40:30.409Z,85.5
2023-02-22T06:50:36.090Z,87.5
2023-02-22T07:00:41.604Z,85.5
2023-02-22T07:10:47.954Z,87
2023-02-22T07:20:54.336Z,87
2023-02-22T07:31:00.702Z,85.5
2023-02-22T07:41:07.106Z,84
2023-02-22T07:51:13.482Z,85
2023-02-22T08:01:19.934Z,83
2023-02-22T08:11:26.290Z,85
2023-02-22T08:21:32.620Z,85
2023-02-22T08:31:39.046Z,84
2023-02-22T08:41:45.380Z,85
2023-02-22T08:51:51.753Z,83
2023-02-22T09:01:58.129Z,84.5
2023-02-22T09:12:03.616Z,85
2023-02-22T09:22:10.028Z,86
2023-02-22T09:32:16.395Z,84.5
2023-02-22T09:42:22.758Z,85
2023-02-22T09:52:29.154Z,82.5
2023-02-22T10:02:35.540Z,81.5
2023-02-22T10:12:41.900Z,81.5
2023-02-22T10:22:48.327Z,81.5
2023-02-22T10:32:54.769Z,81.5
2023-02-22T10:43:01.161Z,81.5
2023-02-22T10:53:07.521Z,82.5
2023-02-22T11:03:13.912Z,84
2023-02-22T11:13:20.291Z,81.5
2023-02-22T11:23:26.644Z,77
2023-02-22T11:33:32.153Z,77
2023-02-22T11:43:38.604Z,77.5
2023-02-22T11:53:44.967Z,74
2023-02-22T12:03:51.309Z,72
2023-02-22T12:13:57.805Z,71.5
2023-02-22T12:24:04.016Z,72
2023-02-22T12:34:10.400Z,69
2023-02-22T12:44:16.782Z,69.5
2023-02-22T12:54:23.216Z,69
2023-02-22T13:04:29.549Z,68
2023-02-22T13:14:35.901Z,71
2023-02-22T13:24:42.339Z,69.5
2023-02-22T13:34:48.635Z,67
2023-02-22T13:44:55.025Z,66
2023-02-22T13:55:00.551Z,65
2023-02-22T14:05:06.901Z,66
2023-02-22T14:15:13.257Z,64.5
2023-02-22T14:25:19.638Z,65.5
2023-02-22T14:35:26.049Z,65
2023-02-22T14:45:32.440Z,63.5
2023-02-22T14:55:38.761Z,66
2023-02-22T15:05:45.152Z,65.5
2023-02-22T15:15:51.583Z,65.5
2023-02-22T15:25:57.872Z,66
2023-02-22T15:36:04.236Z,66
2023-02-22T15:46:10.636Z,66.5
2023-02-22T15:56:16.986Z,67
2023-02-22T16:06:22.549Z,67
2023-02-22T16:16:28.870Z,67
2023-02-22T16:26:35.332Z,66.5
2023-02-22T16:36:41.619Z,66
2023-02-22T16:46:48.015Z,65.5
2023-02-22T16:56:54.354Z,65.5
2023-02-22T17:07:00.738Z,65.5
2023-02-22T17:17:07.122Z,65.5
2023-02-22T17:27:13.590Z,66
2023-02-22T17:37:19.969Z,66.5
2023-02-22T17:47:26.381Z,66.5
2023-02-22T17:57:32.738Z,66.5
2023-02-22T18:07:39.118Z,67.5
2023-02-22T18:17:44.614Z,67
2023-02-22T18:27:50.973Z,67.5
2023-02-22T18:37:57.347Z,67.5
2023-02-22T18:48:03.747Z,67
2023-02-22T18:58:10.090Z,67
2023-02-22T19:08:16.490Z,69
2023-02-22T19:18:22.910Z,68.5
2023-02-22T19:28:29.281Z,68
2023-02-22T19:38:35.620Z,67.5
2023-02-22T19:48:42.011Z,67.5
2023-02-22T19:58:48.358Z,68
2023-02-22T20:08:54.747Z,68
2023-02-22T20:19:01.215Z,69
2023-02-22T20:29:07.476Z,69.5
2023-02-22T20:39:13.850Z,71
2023-02-22T20:49:19.384Z,70
2023-02-22T20:59:25.761Z,71
2023-02-22T21:09:32.099Z,71
2023-02-22T21:19:38.500Z,70.5
2023-02-22T21:29:44.844Z,71
2023-02-22T21:39:51.430Z,70.5
2023-02-22T21:49:57.678Z,72
2023-02-22T22:00:03.942Z,71
2023-02-22T22:10:10.325Z,71.5
2023-02-22T22:20:16.747Z,71
2023-02-22T22:30:23.130Z,72.5
2023-02-22T22:40:29.431Z,71
2023-02-22T22:50:35.814Z,71.5
2023-02-22T23:00:41.313Z,73.5
2023-02-22T23:10:47.713Z,72.5
2023-02-22T23:20:54.062Z,72.5
2023-02-22T23:31:00.536Z,73
2023-02-22T23:41:06.778Z,72.5
2023-02-22T23:51:13.168Z,72.5
